createdAt,value
2022-12-20T00:03:28.518Z,8.33
2022-12-20T00:08:32.533Z,13.73
2022-12-20T00:13:37.573Z,10.80
2022-12-20T00:18:42.754Z,9.07
2022-12-20T00:23:46.363Z,9.75
2022-12-20T00:28:51.394Z,10.60
2022-12-20T00:33:56.431Z,11.30
2022-12-20T00:39:01.571Z,9.53
2022-12-20T00:44:06.866Z,9.33
2022-12-20T00:49:10.480Z,9.20
2022-12-20T00:54:13.944Z,8.93
2022-12-20T00:59:18.693Z,9.37
2022-12-20T01:09:25.440Z,9.53
2022-12-20T01:14:30.330Z,13.40
2022-12-20T01:19:33.942Z,8.70
2022-12-20T01:24:37.395Z,11.15
2022-12-20T01:29:42.413Z,9.13
2022-12-20T01:34:45.892Z,9.73
2022-12-20T01:39:49.612Z,9.27
2022-12-20T01:44:58.965Z,11.07
2022-12-20T01:50:05.132Z,9.33
2022-12-20T01:55:13.964Z,8.93
2022-12-20T02:00:20.028Z,11.13
2022-12-20T02:05:25.141Z,10.20
2022-12-20T02:10:36.713Z,9.63
2022-12-20T02:15:51.554Z,12.52
2022-12-20T02:21:21.249Z,10.93
2022-12-20T02:26:43.417Z,11.27
2022-12-20T02:31:53.805Z,11.73
2022-12-20T02:36:57.754Z,11.67
2022-12-20T02:42:06.029Z,14.77
2022-12-20T02:47:15.491Z,10.10
2022-12-20T02:52:23.596Z,12.20
2022-12-20T02:57:33.904Z,11.70
2022-12-20T03:02:53.585Z,10.47
2022-12-20T03:07:57.592Z,10.43
2022-12-20T03:13:00.921Z,12.13
2022-12-20T03:18:06.097Z,12.70
2022-12-20T03:23:09.578Z,11.87
2022-12-20T03:28:13.220Z,11.57
2022-12-20T03:33:18.443Z,9.47
2022-12-20T03:38:22.177Z,11.60
2022-12-20T03:43:25.533Z,12.10
2022-12-20T03:48:30.537Z,12.17
2022-12-20T03:53:34.343Z,12.17
2022-12-20T03:58:37.971Z,14.30
2022-12-20T04:03:42.976Z,12.87
2022-12-20T04:08:47.101Z,12.53
2022-12-20T04:13:51.903Z,10.52
2022-12-20T04:18:57.076Z,12.17
2022-12-20T04:24:01.705Z,15.40
2022-12-20T04:34:10.075Z,14.27
2022-12-20T04:39:13.608Z,13.73
2022-12-20T04:44:17.138Z,12.57
2022-12-20T04:49:22.110Z,13.07
2022-12-20T04:54:28.043Z,13.50
2022-12-20T04:59:31.790Z,14.07
2022-12-20T05:04:37.661Z,13.20
2022-12-20T05:09:41.350Z,12.97
2022-12-20T05:14:44.818Z,16.90
2022-12-20T05:19:49.731Z,15.80
2022-12-20T05:25:10.241Z,14.37
2022-12-20T05:30:14.556Z,20.07
2022-12-20T05:35:19.919Z,16.63
2022-12-20T05:40:23.643Z,14.50
2022-12-20T05:45:27.337Z,15.50
2022-12-20T05:50:32.270Z,16.70
2022-12-20T05:55:36.084Z,18.80
2022-12-20T06:00:40.584Z,19.10
2022-12-20T06:05:45.799Z,18.40
2022-12-20T06:10:49.768Z,16.57
2022-12-20T06:15:53.882Z,19.77
2022-12-20T06:20:58.723Z,17.42
2022-12-20T06:26:04.611Z,17.60
2022-12-20T06:31:07.972Z,15.40
2022-12-20T06:36:13.160Z,18.00
2022-12-20T06:41:16.667Z,16.07
2022-12-20T06:46:20.200Z,18.20
2022-12-20T06:51:25.268Z,16.47
2022-12-20T06:56:28.794Z,20.03
2022-12-20T07:01:32.342Z,17.90
2022-12-20T07:06:37.279Z,17.47
2022-12-20T07:11:40.873Z,14.60
2022-12-20T07:16:45.039Z,15.77
2022-12-20T07:21:49.816Z,13.68
2022-12-20T07:26:53.270Z,13.68
2022-12-20T07:31:56.620Z,12.38
2022-12-20T07:37:01.560Z,12.23
2022-12-20T07:47:08.795Z,11.98
2022-12-20T07:52:16.032Z,11.55
2022-12-20T07:57:26.737Z,10.18
2022-12-20T08:02:34.904Z,10.13
2022-12-20T08:07:42.213Z,11.23
2022-12-20T08:12:47.625Z,8.63
2022-12-20T08:17:51.063Z,7.60
2022-12-20T08:22:55.820Z,8.60
2022-12-20T08:33:05.863Z,8.75
2022-12-20T08:38:10.699Z,8.20
2022-12-20T08:43:14.339Z,7.82
2022-12-20T08:48:17.687Z,8.07
2022-12-20T08:53:22.482Z,7.63
2022-12-20T08:58:25.848Z,7.22
2022-12-20T09:03:32.512Z,6.68
2022-12-20T09:08:38.465Z,6.22
2022-12-20T09:13:44.338Z,7.65
2022-12-20T09:18:50.602Z,6.55
2022-12-20T09:23:56.531Z,6.65
2022-12-20T09:29:02.290Z,6.65
2022-12-20T09:34:05.940Z,6.32
2022-12-20T09:39:12.222Z,6.47
2022-12-20T09:44:20.660Z,6.78
2022-12-20T09:49:29.520Z,6.90
2022-12-20T09:54:42.237Z,7.53
2022-12-20T09:59:49.826Z,10.37
2022-12-20T10:04:55.693Z,6.83
2022-12-20T10:10:20.903Z,7.87
2022-12-20T10:15:31.713Z,6.38
2022-12-20T10:20:56.846Z,6.87
2022-12-20T10:31:08.486Z,7.35
2022-12-20T10:36:23.597Z,8.30
2022-12-20T10:41:30.165Z,7.40
2022-12-20T10:46:39.053Z,6.97
2022-12-20T10:51:54.173Z,6.60
2022-12-20T10:57:00.978Z,8.60
2022-12-20T11:02:18.383Z,9.43
2022-12-20T11:07:27.193Z,8.73
2022-12-20T11:12:32.433Z,6.83
2022-12-20T11:17:38.977Z,6.73
2022-12-20T11:22:52.390Z,6.63
2022-12-20T11:28:15.132Z,9.57
2022-12-20T11:33:42.844Z,7.60
2022-12-20T11:39:00.429Z,7.13
2022-12-20T11:44:25.455Z,6.80
2022-12-20T11:49:51.770Z,7.40
2022-12-20T11:55:07.649Z,7.90
2022-12-20T12:00:16.327Z,7.67
2022-12-20T12:05:24.988Z,9.13
2022-12-20T12:10:33.683Z,6.30
2022-12-20T12:15:49.427Z,8.67
2022-12-20T12:21:03.530Z,7.87
2022-12-20T12:26:14.041Z,6.90
2022-12-20T12:31:23.296Z,5.83
2022-12-20T12:36:52.036Z,8.00
2022-12-20T12:42:27.626Z,9.07
2022-12-20T12:47:40.152Z,7.33
2022-12-20T12:52:47.661Z,10.73
2022-12-20T12:57:58.760Z,8.70
2022-12-20T13:03:16.077Z,6.43
2022-12-20T13:08:19.937Z,7.87
2022-12-20T13:13:24.882Z,8.50
2022-12-20T13:18:30.787Z,8.73
2022-12-20T13:23:34.372Z,8.30
2022-12-20T13:28:45.673Z,8.23
2022-12-20T13:33:51.816Z,8.80
2022-12-20T13:39:00.289Z,7.33
2022-12-20T13:44:25.423Z,7.30
2022-12-20T13:49:33.710Z,7.37
2022-12-20T13:54:42.409Z,8.57
2022-12-20T13:59:48.756Z,8.40
2022-12-20T14:05:00.229Z,7.70
2022-12-20T14:10:06.271Z,8.30
2022-12-20T14:15:23.550Z,7.93
2022-12-20T14:20:33.154Z,10.27
2022-12-20T14:25:43.280Z,9.77
2022-12-20T14:30:47.055Z,8.30
2022-12-20T14:35:52.508Z,10.27
2022-12-20T14:40:56.108Z,8.23
2022-12-20T14:46:20.423Z,8.47
2022-12-20T14:51:25.797Z,8.77
2022-12-20T14:56:32.215Z,8.67
2022-12-20T15:01:43.413Z,8.30
2022-12-20T15:06:49.740Z,9.87
2022-12-20T15:11:55.405Z,9.77
2022-12-20T15:16:58.779Z,9.20
2022-12-20T15:22:03.984Z,8.90
2022-12-20T15:27:13.871Z,8.50
2022-12-20T15:32:24.179Z,12.10
2022-12-20T15:37:29.139Z,17.50
2022-12-20T15:42:32.550Z,14.90
2022-12-20T15:47:35.896Z,11.40
2022-12-20T15:52:40.872Z,15.17
2022-12-20T15:57:44.551Z,27.73
2022-12-20T16:02:50.345Z,13.37
2022-12-20T16:07:55.466Z,11.43
2022-12-20T16:12:58.838Z,12.17
2022-12-20T16:18:02.278Z,12.83
2022-12-20T16:23:09.099Z,15.27
2022-12-20T16:28:12.698Z,12.27
2022-12-20T16:33:21.902Z,12.23
2022-12-20T16:38:26.861Z,18.23
2022-12-20T16:43:35.304Z,17.60
2022-12-20T16:48:42.410Z,18.67
2022-12-20T16:54:17.120Z,16.42
2022-12-20T16:59:20.718Z,15.65
2022-12-20T17:04:26.993Z,18.00
2022-12-20T17:09:31.806Z,16.83
2022-12-20T17:14:35.163Z,14.63
2022-12-20T17:19:38.659Z,16.53
2022-12-20T17:24:43.542Z,16.97
2022-12-20T17:29:46.903Z,17.60
2022-12-20T17:34:50.965Z,13.17
2022-12-20T17:39:55.865Z,15.88
2022-12-20T17:44:59.536Z,13.30
2022-12-20T17:50:02.894Z,12.93
2022-12-20T17:55:09.384Z,14.70
2022-12-20T18:00:22.054Z,15.93
2022-12-20T18:05:26.398Z,18.10
2022-12-20T18:10:31.493Z,15.77
2022-12-20T18:15:34.941Z,15.60
2022-12-20T18:20:38.290Z,14.70
2022-12-20T18:25:43.338Z,17.07
2022-12-20T18:30:46.817Z,22.83
2022-12-20T18:35:50.377Z,18.83
2022-12-20T18:40:55.267Z,18.83
2022-12-20T18:46:03.953Z,16.87
2022-12-20T18:51:08.305Z,16.23
2022-12-20T18:56:15.453Z,17.17
2022-12-20T19:01:20.452Z,17.07
2022-12-20T19:06:25.196Z,18.40
2022-12-20T19:11:30.503Z,15.73
2022-12-20T19:16:34.419Z,15.47
2022-12-20T19:21:39.659Z,16.30
2022-12-20T19:26:45.853Z,20.33
2022-12-20T19:31:49.534Z,16.40
2022-12-20T19:36:53.519Z,16.30
2022-12-20T19:42:22.864Z,19.83
2022-12-20T19:47:23.687Z,20.73
2022-12-20T19:52:28.913Z,17.70
2022-12-20T19:57:34.062Z,16.97
2022-12-20T20:02:37.643Z,20.70
2022-12-20T20:07:41.262Z,21.60
2022-12-20T20:12:46.319Z,16.47
2022-12-20T20:17:49.678Z,18.50
2022-12-20T20:22:53.410Z,20.97
2022-12-20T20:27:58.241Z,20.83
2022-12-20T20:33:01.624Z,20.00
2022-12-20T20:38:05.313Z,16.87
2022-12-20T20:43:10.326Z,15.87
2022-12-20T20:48:14.405Z,18.43
2022-12-20T20:53:17.729Z,15.70
2022-12-20T20:58:22.756Z,21.03
2022-12-20T21:03:27.040Z,23.23
2022-12-20T21:08:30.559Z,20.73
2022-12-20T21:13:35.629Z,23.50
2022-12-20T21:18:39.145Z,23.60
2022-12-20T21:23:46.372Z,20.77
2022-12-20T21:28:52.020Z,23.53
2022-12-20T21:33:56.845Z,25.73
2022-12-20T21:39:00.621Z,24.60
2022-12-20T21:44:05.420Z,18.00
2022-12-20T21:49:08.765Z,21.07
2022-12-20T21:54:12.386Z,22.90
2022-12-20T21:59:17.438Z,26.13
2022-12-20T22:04:20.823Z,26.53
2022-12-20T22:09:24.224Z,24.13
2022-12-20T22:14:29.407Z,23.63
2022-12-20T22:19:33.015Z,23.03
2022-12-20T22:24:37.383Z,25.17
2022-12-20T22:34:45.384Z,23.05
2022-12-20T22:39:49.372Z,24.80
2022-12-20T22:44:54.346Z,26.00
2022-12-20T22:49:57.888Z,28.83
2022-12-20T22:55:01.543Z,33.80
2022-12-20T23:00:13.259Z,32.90
2022-12-20T23:05:16.949Z,32.17
2022-12-20T23:10:34.359Z,38.10
2022-12-20T23:15:41.758Z,35.83
2022-12-20T23:21:08.180Z,34.37
2022-12-20T23:26:12.426Z,30.23
2022-12-20T23:31:17.668Z,34.58
2022-12-20T23:36:21.182Z,31.17
2022-12-20T23:41:24.834Z,29.20
2022-12-20T23:46:29.853Z,30.67
2022-12-20T23:51:34.724Z,35.23
2022-12-20T23:56:38.258Z,32.77
